Time;durP1;ratioP1;P1;durP2;ratioP2;P2;SDS_P1;SDS_P2;PMS_P1;PMS_P2;Temp;Humidity;BMP_temperature;BMP_pressure;BME280_temperature;BME280_humidity;BME280_pressure;Samples;Min_cycle;Max_cycle;Signal;HPM_P1;HPM_P2
2022/09/13 00:01:44;;;;;;;14.52;6.88;;;;;;;16.35;86.12;100895.91;5013752;28;20042;-85
2022/09/13 00:04:09;;;;;;;9.43;5.65;;;;;;;16.40;85.52;100896.31;5006333;28;20908;-85
2022/09/13 00:06:35;;;;;;;11.90;6.90;;;;;;;16.47;84.68;100904.84;5006558;28;20074;-85
2022/09/13 00:09:00;;;;;;;9.00;6.63;;;;;;;16.45;85.10;100904.97;4989974;28;20034;-85
2022/09/13 00:11:28;;;;;;;9.63;6.72;;;;;;;16.49;84.91;100909.16;4991704;28;20125;-85
2022/09/13 00:13:55;;;;;;;9.32;6.53;;;;;;;16.49;84.67;100914.66;5008660;28;20057;-85
2022/09/13 00:16:23;;;;;;;14.93;6.88;;;;;;;16.49;85.33;100917.41;5004608;28;20402;-85
2022/09/13 00:18:49;;;;;;;10.23;6.50;;;;;;;16.47;84.70;100908.47;4989520;28;20025;-85
2022/09/13 00:21:17;;;;;;;9.60;7.15;;;;;;;16.50;85.45;100905.41;4989778;28;20042;-85
2022/09/13 00:23:45;;;;;;;10.77;7.07;;;;;;;16.50;83.63;100902.66;5004650;28;20043;-85
2022/09/13 00:26:13;;;;;;;13.93;7.05;;;;;;;16.52;84.30;100895.16;4992953;28;20054;-85
2022/09/13 00:28:39;;;;;;;12.68;7.38;;;;;;;16.47;84.67;100888.38;4990223;28;20065;-85
2022/09/13 00:31:07;;;;;;;8.88;6.25;;;;;;;16.47;85.06;100886.50;5007194;28;20486;-85
2022/09/13 00:33:33;;;;;;;9.02;5.75;;;;;;;16.50;84.53;100888.91;4992696;28;20545;-85
2022/09/13 00:36:06;;;;;;;10.63;6.13;;;;;;;16.50;84.64;100886.19;5005172;28;20048;-85
2022/09/13 00:38:33;;;;;;;12.40;5.82;;;;;;;16.49;85.45;100887.19;5030833;28;20126;-85
2022/09/13 00:40:59;;;;;;;11.48;6.80;;;;;;;16.50;85.11;100877.94;4990074;28;20061;-85
2022/09/13 00:43:55;;;;;;;11.65;6.82;;;;;;;16.50;84.40;100875.19;4988817;28;20088;-85
2022/09/13 00:46:40;;;;;;;12.48;7.10;;;;;;;16.51;84.04;100871.44;4991295;28;20026;-85
2022/09/13 00:49:18;;;;;;;10.15;7.15;;;;;;;16.52;84.33;100875.94;5009904;28;20046;-85
2022/09/13 00:51:49;;;;;;;13.23;6.95;;;;;;;16.51;83.03;100871.44;5009124;28;20551;-85
2022/09/13 00:54:19;;;;;;;11.98;7.47;;;;;;;16.53;82.00;100868.53;4995255;28;20037;-85
2022/09/13 00:56:49;;;;;;;13.40;7.82;;;;;;;16.51;82.90;100863.22;4989127;28;20072;-85
2022/09/13 00:59:23;;;;;;;11.57;7.68;;;;;;;16.53;82.53;100854.81;4989724;28;20556;-85
2022/09/13 01:01:53;;;;;;;13.13;7.30;;;;;;;16.55;82.30;100856.41;4995212;28;20049;-86
2022/09/13 01:04:22;;;;;;;11.00;6.80;;;;;;;16.53;82.79;100857.56;4976022;28;20038;-85
2022/09/13 01:06:49;;;;;;;13.00;7.68;;;;;;;16.53;82.93;100868.53;4972711;28;20096;-85
2022/09/13 01:09:14;;;;;;;9.02;7.30;;;;;;;16.54;82.38;100857.41;4989850;28;20042;-85
2022/09/13 01:11:47;;;;;;;11.65;6.95;;;;;;;16.52;82.57;100855.84;4989854;28;20030;-85
2022/09/13 01:14:17;;;;;;;10.68;7.03;;;;;;;16.52;82.56;100856.69;5005311;28;20072;-85
2022/09/13 01:16:42;;;;;;;12.20;8.00;;;;;;;16.56;82.07;100862.78;4991698;28;20467;-85
2022/09/13 01:19:08;;;;;;;9.93;6.57;;;;;;;16.55;82.45;100859.16;5009538;28;20116;-85
2022/09/13 01:21:43;;;;;;;10.88;6.70;;;;;;;16.57;81.68;100862.59;5002856;28;20042;-85
2022/09/13 01:24:29;;;;;;;10.90;7.38;;;;;;;16.58;81.74;100858.84;5007884;28;20042;-85
2022/09/13 01:27:36;;;;;;;10.55;6.75;;;;;;;16.60;81.55;100855.97;4997660;28;20038;-85
2022/09/13 01:30:04;;;;;;;10.35;8.07;;;;;;;16.58;81.71;100853.34;4988248;28;20041;-85
2022/09/13 01:32:41;;;;;;;12.98;7.50;;;;;;;16.61;81.95;100859.56;4985203;28;20038;-85
2022/09/13 01:35:40;;;;;;;11.15;6.93;;;;;;;16.61;82.21;100857.69;4988635;28;20045;-85
2022/09/13 01:38:34;;;;;;;11.57;6.80;;;;;;;16.55;82.74;100853.66;4989999;28;20429;-85
2022/09/13 01:41:34;;;;;;;10.00;7.22;;;;;;;16.57;82.46;100862.59;5002120;28;20038;-85
2022/09/13 01:44:31;;;;;;;10.38;6.65;;;;;;;16.58;82.88;100855.22;4976480;28;20104;-85
2022/09/13 01:47:10;;;;;;;13.02;6.82;;;;;;;16.57;83.88;100853.50;4989544;28;20049;-85
2022/09/13 01:49:44;;;;;;;8.75;6.95;;;;;;;16.52;83.11;100847.59;4987462;28;20403;-85
2022/09/13 01:52:23;;;;;;;11.48;7.70;;;;;;;16.52;83.22;100844.84;5001889;28;20046;-84
2022/09/13 01:54:59;;;;;;;12.98;8.60;;;;;;;16.53;81.69;100849.31;5006665;28;20091;-85
2022/09/13 01:57:36;;;;;;;9.00;6.50;;;;;;;16.53;83.96;100849.31;5003353;28;20035;-85
2022/09/13 02:00:12;;;;;;;8.98;7.18;;;;;;;16.48;84.72;100847.03;4987815;28;20072;-85
2022/09/13 02:02:44;;;;;;;9.23;6.63;;;;;;;16.47;84.61;100844.44;5001846;28;20587;-85
2022/09/13 02:05:26;;;;;;;12.93;6.93;;;;;;;16.47;85.10;100842.56;4991199;28;20350;-85
2022/09/13 02:07:58;;;;;;;8.60;6.18;;;;;;;16.48;84.68;100841.53;4971222;28;20074;-85
2022/09/13 02:10:37;;;;;;;11.60;5.85;;;;;;;16.47;85.74;100838.94;4987149;28;20026;-85
2022/09/13 02:13:08;;;;;;;7.53;5.90;;;;;;;16.45;85.98;100841.81;4967467;28;20077;-85
2022/09/13 02:15:43;;;;;;;8.23;5.68;;;;;;;16.46;85.34;100839.94;4975734;28;20038;-86
2022/09/13 02:18:16;;;;;;;7.60;5.57;;;;;;;16.47;85.66;100848.03;4987540;28;20049;-85
2022/09/13 02:20:44;;;;;;;10.95;7.05;;;;;;;16.46;84.96;100849.06;4989428;28;20052;-85
2022/09/13 02:23:17;;;;;;;11.80;7.25;;;;;;;16.47;84.74;100844.44;4982821;28;20034;-85
2022/09/13 02:25:46;;;;;;;9.65;6.32;;;;;;;16.39;86.09;100847.06;4975353;28;20500;-85
2022/09/13 02:28:16;;;;;;;9.73;6.65;;;;;;;16.45;85.57;100857.44;4987421;28;20030;-85
2022/09/13 02:30:48;;;;;;;10.32;6.38;;;;;;;16.41;86.52;100840.38;4988018;28;20048;-85
2022/09/13 02:33:23;;;;;;;8.95;6.00;;;;;;;16.43;86.99;100854.84;5004175;28;20038;-85
2022/09/13 02:36:08;;;;;;;9.63;6.32;;;;;;;16.41;86.88;100839.53;4987333;28;20405;-85
2022/09/13 02:38:44;;;;;;;7.55;5.60;;;;;;;16.44;86.37;100851.06;5001647;28;20098;-85
2022/09/13 02:41:17;;;;;;;8.30;5.70;;;;;;;16.46;86.90;100846.31;4984938;28;20396;-85
2022/09/13 02:43:52;;;;;;;8.35;6.40;;;;;;;16.44;86.74;100848.34;4980043;28;20397;-85
2022/09/13 02:46:42;;;;;;;9.50;6.45;;;;;;;16.46;86.52;100860.06;4988123;28;20042;-86
2022/09/13 02:49:28;;;;;;;10.60;6.97;;;;;;;16.49;87.25;100875.34;4988364;28;20486;-85
2022/09/13 02:52:06;;;;;;;10.77;6.68;;;;;;;16.47;86.61;100870.03;5019698;28;20038;-85
2022/09/13 02:54:56;;;;;;;11.43;7.03;;;;;;;16.47;86.57;100869.16;4986511;28;20100;-85
2022/09/13 02:57:31;;;;;;;10.07;7.45;;;;;;;16.45;85.89;100862.94;4986317;28;20038;-85
2022/09/13 02:59:57;;;;;;;10.15;7.05;;;;;;;16.43;86.04;100868.56;4970237;28;20048;-85
2022/09/13 03:02:28;;;;;;;10.38;7.93;;;;;;;16.45;86.23;100868.41;4987264;28;20027;-85
2022/09/13 03:04:53;;;;;;;10.65;7.45;;;;;;;16.45;85.79;100871.16;4987082;28;20046;-85
2022/09/13 03:07:19;;;;;;;10.77;7.45;;;;;;;16.48;85.35;100879.13;4990620;28;20038;-85
2022/09/13 03:09:53;;;;;;;12.07;6.97;;;;;;;16.43;85.95;100868.56;4986217;28;20046;-85
2022/09/13 03:12:45;;;;;;;11.82;6.88;;;;;;;16.48;85.64;100876.38;5000238;28;20042;-85
2022/09/13 03:15:52;;;;;;;15.82;7.25;;;;;;;16.48;85.55;100868.13;4987519;28;20038;-85
2022/09/13 03:19:06;;;;;;;12.98;7.38;;;;;;;16.47;85.32;100861.78;4991585;28;20054;-85
2022/09/13 03:21:50;;;;;;;10.00;7.03;;;;;;;16.48;84.63;100860.75;4989458;28;20375;-85
2022/09/13 03:24:40;;;;;;;10.90;7.38;;;;;;;16.47;85.04;100858.16;4991622;28;20034;-85
2022/09/13 03:27:28;;;;;;;14.82;7.22;;;;;;;16.50;84.98;100855.97;4992913;28;20038;-85
2022/09/13 03:30:01;;;;;;;10.93;7.20;;;;;;;16.45;84.61;100855.53;5006892;28;20520;-85
2022/09/13 03:33:03;;;;;;;11.20;7.07;;;;;;;16.47;85.38;100863.66;4987210;28;20100;-85
2022/09/13 03:35:51;;;;;;;11.90;7.50;;;;;;;16.46;85.68;100861.91;5023518;28;20517;-85
2022/09/13 03:38:24;;;;;;;9.27;7.13;;;;;;;16.44;85.25;100845.59;4992581;28;20046;-85
2022/09/13 03:41:04;;;;;;;11.07;7.25;;;;;;;16.43;85.13;100848.50;4993626;28;20038;-86
2022/09/13 03:43:39;;;;;;;13.65;7.60;;;;;;;16.44;85.21;100855.72;4991478;28;20077;-85
2022/09/13 03:46:17;;;;;;;10.63;7.03;;;;;;;16.44;84.67;100852.97;4991156;28;20199;-85
2022/09/13 03:48:44;;;;;;;9.88;7.30;;;;;;;16.40;85.84;100849.63;4990516;28;20407;-85
2022/09/13 03:51:10;;;;;;;9.00;7.10;;;;;;;16.41;86.17;100840.38;4990218;28;20434;-85
2022/09/13 03:53:41;;;;;;;13.38;6.65;;;;;;;16.38;86.69;100848.06;5031553;28;20121;-85
2022/09/13 03:56:19;;;;;;;13.52;6.82;;;;;;;16.36;85.55;100844.59;4993184;28;20473;-85
2022/09/13 03:58:46;;;;;;;9.73;6.30;;;;;;;16.37;86.58;100852.72;5002518;28;20034;-85
2022/09/13 04:01:12;;;;;;;13.20;6.47;;;;;;;16.32;86.43;100844.91;5004143;28;20038;-85
2022/09/13 04:03:38;;;;;;;12.75;6.32;;;;;;;16.33;86.81;100845.78;4989880;28;20420;-85
2022/09/13 04:06:04;;;;;;;10.93;6.63;;;;;;;16.29;87.58;100844.34;4989994;28;20042;-85
2022/09/13 04:08:30;;;;;;;10.45;6.45;;;;;;;16.29;87.03;100847.09;4998122;28;20046;-84
2022/09/13 04:10:56;;;;;;;11.75;6.70;;;;;;;16.27;87.41;100854.59;4993501;28;20072;-85
2022/09/13 04:13:21;;;;;;;10.68;6.53;;;;;;;16.23;87.07;100853.19;5007072;28;20049;-84
2022/09/13 04:15:49;;;;;;;11.40;6.35;;;;;;;16.21;86.80;100866.16;4989291;28;20037;-85
2022/09/13 04:18:14;;;;;;;9.07;5.95;;;;;;;16.16;86.72;100876.72;4990181;28;20045;-84
2022/09/13 04:20:40;;;;;;;12.02;6.07;;;;;;;16.17;86.45;100882.06;5024571;28;20489;-84
2022/09/13 04:23:05;;;;;;;9.93;6.20;;;;;;;16.12;86.21;100870.66;5000413;28;20049;-85
2022/09/13 04:25:30;;;;;;;10.65;6.40;;;;;;;16.08;86.43;100878.31;4991892;28;20113;-85
2022/09/13 04:27:58;;;;;;;10.68;6.22;;;;;;;16.05;86.51;100878.63;4990537;28;20042;-84
2022/09/13 04:30:24;;;;;;;13.05;5.70;;;;;;;16.02;86.71;100881.63;5005563;28;20042;-85
2022/09/13 04:32:50;;;;;;;9.50;6.25;;;;;;;16.00;86.72;100888.31;4987608;28;20026;-85
2022/09/13 04:35:16;;;;;;;9.68;6.28;;;;;;;15.96;86.49;100881.38;4988066;28;20351;-85
2022/09/13 04:37:43;;;;;;;7.60;5.32;;;;;;;15.96;86.41;100878.63;4989568;28;20438;-85
2022/09/13 04:40:09;;;;;;;8.88;5.82;;;;;;;15.95;86.67;100880.50;4989230;28;20404;-85
2022/09/13 04:42:34;;;;;;;11.30;6.45;;;;;;;15.92;86.76;100874.44;4994766;28;20041;-85
2022/09/13 04:45:00;;;;;;;11.68;6.78;;;;;;;15.91;87.53;100889.16;5008775;28;20033;-85
2022/09/13 04:47:25;;;;;;;8.23;6.32;;;;;;;15.89;87.26;100882.94;4997293;28;20101;-85
2022/09/13 04:49:50;;;;;;;8.68;5.60;;;;;;;15.90;87.67;100885.56;5010276;28;20041;-85
2022/09/13 04:52:16;;;;;;;11.43;6.50;;;;;;;15.94;87.32;100897.09;5007273;28;20046;-85
2022/09/13 04:54:42;;;;;;;10.40;6.82;;;;;;;15.90;87.32;100891.06;5007670;28;20034;-85
2022/09/13 04:57:07;;;;;;;8.40;5.93;;;;;;;15.91;87.80;100897.41;5022959;28;20450;-85
2022/09/13 04:59:33;;;;;;;12.40;7.55;;;;;;;15.86;87.92;100886.00;5000928;28;20481;-85
2022/09/13 05:01:58;;;;;;;13.63;6.85;;;;;;;15.88;88.17;100892.19;5007212;28;20034;-85
2022/09/13 05:04:23;;;;;;;14.30;7.07;;;;;;;15.89;87.71;100894.78;5008028;28;20515;-85
2022/09/13 05:06:49;;;;;;;11.70;7.07;;;;;;;15.84;88.28;100888.88;5011054;28;20467;-85
2022/09/13 05:09:14;;;;;;;9.50;6.38;;;;;;;15.84;88.40;100891.59;4994615;28;20452;-85
2022/09/13 05:11:40;;;;;;;8.43;6.70;;;;;;;15.86;87.63;100895.09;5022895;28;20025;-85
2022/09/13 05:14:08;;;;;;;9.18;7.03;;;;;;;15.86;87.31;100894.22;5027867;28;20476;-85
2022/09/13 05:16:33;;;;;;;11.95;6.65;;;;;;;15.86;87.59;100894.22;5020146;28;20037;-85
2022/09/13 05:19:00;;;;;;;10.32;6.78;;;;;;;15.88;87.90;100893.06;5002345;28;20044;-85
2022/09/13 05:21:26;;;;;;;10.70;5.95;;;;;;;15.92;87.23;100900.00;5019184;28;20076;-85
2022/09/13 05:23:53;;;;;;;9.32;6.35;;;;;;;15.91;87.86;100895.53;5010542;28;20029;-85
2022/09/13 05:26:19;;;;;;;10.77;6.47;;;;;;;15.90;87.92;100888.31;5005511;28;20510;-85
2022/09/13 05:28:44;;;;;;;12.57;6.68;;;;;;;15.89;87.97;100882.94;5009406;28;20048;-85
2022/09/13 05:31:19;;;;;;;10.05;6.32;;;;;;;15.91;87.83;100902.88;4997558;28;20460;-85
2022/09/13 05:33:47;;;;;;;13.05;7.35;;;;;;;15.89;88.64;100902.16;5009201;28;20432;-85
2022/09/13 05:36:12;;;;;;;12.32;7.00;;;;;;;15.90;87.85;100901.13;5009924;28;20417;-85
2022/09/13 05:38:38;;;;;;;11.82;6.63;;;;;;;15.94;88.04;100903.44;4996334;28;20026;-85
2022/09/13 05:41:04;;;;;;;8.13;6.40;;;;;;;15.94;88.89;100903.44;5008686;28;20040;-84
2022/09/13 05:43:34;;;;;;;15.45;7.40;;;;;;;16.00;88.03;100904.78;4991160;28;20048;-84
2022/09/13 05:46:00;;;;;;;14.82;6.53;;;;;;;16.03;88.19;100912.69;5023835;28;20117;-85
2022/09/13 05:48:25;;;;;;;9.55;6.45;;;;;;;16.03;87.42;100902.56;4991312;28;20042;-85
2022/09/13 05:50:51;;;;;;;9.30;6.75;;;;;;;16.07;88.08;100908.66;5009419;28;20087;-85
2022/09/13 05:53:16;;;;;;;10.52;6.45;;;;;;;16.04;87.71;100896.09;5019253;28;20109;-84
2022/09/13 05:55:41;;;;;;;11.23;6.50;;;;;;;16.13;87.71;100907.19;5010455;28;20057;-85
2022/09/13 05:58:07;;;;;;;12.23;7.10;;;;;;;16.11;88.24;100893.63;5008555;28;20033;-85
2022/09/13 06:00:33;;;;;;;12.32;6.97;;;;;;;16.19;88.48;100903.88;4991116;28;20017;-85
2022/09/13 06:02:58;;;;;;;13.40;7.00;;;;;;;16.19;88.53;100906.63;5008852;28;20030;-85
2022/09/13 06:05:24;;;;;;;11.35;7.00;;;;;;;16.21;88.79;100904.59;5023846;28;20069;-85
2022/09/13 06:07:49;;;;;;;9.15;6.45;;;;;;;16.26;88.09;100913.25;4990728;28;20100;-85
2022/09/13 06:10:15;;;;;;;11.40;5.82;;;;;;;16.25;88.31;100900.53;4973408;28;20442;-85
2022/09/13 06:12:40;;;;;;;12.30;6.45;;;;;;;16.32;88.86;100902.56;5025044;28;20032;-85
2022/09/13 06:15:08;;;;;;;12.38;6.07;;;;;;;16.36;87.81;100902.25;5009777;28;20029;-85
2022/09/13 06:17:33;;;;;;;13.57;7.32;;;;;;;16.40;89.62;100906.44;5007033;28;20056;-85
2022/09/13 06:19:58;;;;;;;12.35;7.65;;;;;;;16.44;88.91;100903.25;4993111;28;20021;-85
2022/09/13 06:22:31;;;;;;;11.75;7.07;;;;;;;16.48;88.88;100903.84;5006179;28;20037;-85
2022/09/13 06:24:57;;;;;;;9.43;6.73;;;;;;;16.53;89.85;100902.38;5009363;28;20037;-85
2022/09/13 06:27:23;;;;;;;10.57;7.53;;;;;;;16.59;89.19;100904.50;5023350;28;20528;-85
2022/09/13 06:29:48;;;;;;;10.38;7.20;;;;;;;16.66;89.77;100903.94;5027413;28;20112;-85
2022/09/13 06:32:13;;;;;;;13.02;7.32;;;;;;;16.70;89.36;100906.25;5014879;28;20037;-85
2022/09/13 06:34:39;;;;;;;12.38;7.40;;;;;;;16.73;88.13;100900.47;5019281;28;20044;-85
2022/09/13 06:37:04;;;;;;;10.80;7.93;;;;;;;16.82;88.53;100905.06;5009980;28;20045;-85
2022/09/13 06:39:31;;;;;;;9.35;7.53;;;;;;;16.88;88.76;100897.22;5009587;28;20381;-85
2022/09/13 06:41:56;;;;;;;10.27;7.53;;;;;;;16.97;87.39;100897.22;5012076;28;20037;-85
2022/09/13 06:44:35;;;;;;;12.60;7.45;;;;;;;17.00;88.17;100896.03;5006217;28;20048;-85
2022/09/13 06:47:00;;;;;;;12.88;7.57;;;;;;;17.04;88.40;100905.69;5007208;28;20420;-85
2022/09/13 06:49:28;;;;;;;9.00;7.20;;;;;;;17.05;88.01;100900.03;4993347;28;20072;-85
2022/09/13 06:51:53;;;;;;;10.65;7.68;;;;;;;17.04;87.90;100895.56;5008536;28;20512;-85
2022/09/13 06:54:19;;;;;;;10.63;7.43;;;;;;;17.07;88.02;100886.16;5026511;28;20033;-85
2022/09/13 06:56:44;;;;;;;12.48;8.23;;;;;;;17.08;88.74;100902.50;5008399;28;20156;-85
2022/09/13 06:59:10;;;;;;;11.73;8.13;;;;;;;17.12;87.02;100893.97;5011336;28;20017;-85
2022/09/13 07:01:40;;;;;;;11.68;8.45;;;;;;;17.18;87.77;100905.19;5012675;28;20048;-85
2022/09/13 07:04:11;;;;;;;10.95;7.45;;;;;;;17.24;88.08;100899.06;5010887;28;20029;-85
2022/09/13 07:06:41;;;;;;;13.55;8.23;;;;;;;17.26;88.07;100894.31;5031274;28;20045;-85
2022/09/13 07:09:10;;;;;;;13.43;9.93;;;;;;;17.33;87.88;100897.28;5010335;28;20041;-85
2022/09/13 07:11:38;;;;;;;12.93;9.45;;;;;;;17.38;86.93;100900.44;5008342;28;20033;-85
2022/09/13 07:14:08;;;;;;;13.70;9.10;;;;;;;17.46;86.37;100892.31;5030538;28;20026;-85
2022/09/13 07:16:36;;;;;;;19.23;13.07;;;;;;;17.55;86.97;100896.88;5029811;28;20404;-85
2022/09/13 07:19:04;;;;;;;21.58;11.25;;;;;;;17.68;85.52;100904.75;5013087;28;20029;-85
2022/09/13 07:21:31;;;;;;;24.95;17.05;;;;;;;17.73;85.13;100904.28;5043844;28;20051;-85
2022/09/13 07:23:56;;;;;;;20.27;15.38;;;;;;;17.80;84.36;100892.50;5011858;28;20029;-86
2022/09/13 07:26:22;;;;;;;25.42;19.00;;;;;;;17.91;84.94;100904.34;5010109;28;20037;-85
2022/09/13 07:28:51;;;;;;;25.15;17.58;;;;;;;18.02;84.93;100902.19;5009907;28;20013;-86
2022/09/13 07:31:19;;;;;;;27.15;18.98;;;;;;;18.10;84.94;100899.53;5029567;28;20033;-85
2022/09/13 07:33:46;;;;;;;25.67;19.52;;;;;;;18.20;83.52;100899.44;5030896;28;20061;-85
2022/09/13 07:36:12;;;;;;;25.40;18.90;;;;;;;18.31;84.38;100912.06;5013464;28;20575;-85
2022/09/13 07:38:40;;;;;;;28.55;19.13;;;;;;;18.39;82.75;100920.41;5027123;28;20030;-86
2022/09/13 07:41:07;;;;;;;27.63;19.13;;;;;;;18.47;82.75;100914.97;4993546;28;20037;-86
2022/09/13 07:43:35;;;;;;;26.88;19.25;;;;;;;18.57;82.01;100914.88;5012487;28;20038;-85
2022/09/13 07:46:03;;;;;;;26.00;18.70;;;;;;;18.66;81.96;100915.78;5029365;28;20373;-85
2022/09/13 07:48:31;;;;;;;28.83;20.40;;;;;;;18.77;82.74;100924.66;5009774;28;20041;-85
2022/09/13 07:51:02;;;;;;;30.13;20.48;;;;;;;18.86;82.30;100922.84;4996255;28;20029;-85
2022/09/13 07:53:29;;;;;;;27.67;21.33;;;;;;;18.97;81.58;100928.06;5029227;28;20044;-85
2022/09/13 07:56:31;;;;;;;31.63;20.70;;;;;;;19.10;82.06;100925.72;5026202;28;20400;-85
2022/09/13 07:58:59;;;;;;;30.20;22.53;;;;;;;19.20;82.02;100933.88;5010247;28;20411;-85
2022/09/13 08:01:27;;;;;;;33.03;21.98;;;;;;;19.25;81.08;100920.44;5026797;28;20364;-85
2022/09/13 08:03:54;;;;;;;30.20;22.02;;;;;;;19.47;81.42;100932.78;5045701;28;20116;-85
2022/09/13 08:06:20;;;;;;;29.75;21.42;;;;;;;19.52;79.86;100938.66;5011446;28;20523;-85
2022/09/13 08:08:45;;;;;;;31.02;20.60;;;;;;;19.60;79.20;100940.63;5011286;28;20033;-85
2022/09/13 08:11:17;;;;;;;31.73;21.52;;;;;;;19.63;78.82;100926.47;5011031;28;20420;-85
2022/09/13 08:13:43;;;;;;;32.13;20.70;;;;;;;19.77;79.78;100933.22;4996413;28;20030;-85
2022/09/13 08:16:08;;;;;;;30.63;21.35;;;;;;;19.86;78.40;100923.94;5026023;28;20128;-85
2022/09/13 08:18:34;;;;;;;33.30;23.50;;;;;;;19.95;77.14;100928.44;4994344;28;20577;-85
2022/09/13 08:21:00;;;;;;;34.08;21.65;;;;;;;20.05;77.77;100933.81;5028230;28;20373;-84
2022/09/13 08:23:27;;;;;;;31.95;21.05;;;;;;;20.13;77.83;100926.41;5027659;28;20037;-85
2022/09/13 08:25:53;;;;;;;33.15;22.60;;;;;;;20.28;78.74;100939.53;5024866;28;20021;-85
2022/09/13 08:28:20;;;;;;;34.53;23.00;;;;;;;20.42;76.35;100937.97;5029496;28;20148;-85
2022/09/13 08:30:46;;;;;;;32.85;21.92;;;;;;;20.46;75.99;100937.47;4987885;28;20068;-85
2022/09/13 08:33:12;;;;;;;30.13;22.38;;;;;;;20.46;75.43;100944.88;5026257;28;20532;-85
2022/09/13 08:35:38;;;;;;;31.98;23.10;;;;;;;20.42;76.44;100951.78;5012070;28;20973;-85
2022/09/13 08:38:05;;;;;;;37.38;22.95;;;;;;;20.46;77.33;100954.03;5006821;28;20021;-85
2022/09/13 08:40:33;;;;;;;35.92;23.10;;;;;;;20.51;76.03;100950.78;5027837;28;20480;-85
2022/09/13 08:43:19;;;;;;;32.00;21.95;;;;;;;20.56;77.15;100953.91;5010462;28;20025;-85
2022/09/13 08:46:23;;;;;;;30.48;21.23;;;;;;;20.69;77.56;100945.94;5010596;28;20111;-86
2022/09/13 08:48:53;;;;;;;35.20;22.52;;;;;;;20.81;76.37;100955.63;4993036;28;20052;-86
2022/09/13 08:51:32;;;;;;;32.53;21.15;;;;;;;20.87;76.82;100952.13;5022509;28;20448;-85
2022/09/13 08:53:58;;;;;;;30.67;20.50;;;;;;;20.93;75.40;100953.31;5018149;28;20037;-85
2022/09/13 08:56:38;;;;;;;33.25;20.80;;;;;;;20.93;74.98;100956.09;5007323;28;20037;-85
2022/09/13 08:59:15;;;;;;;30.27;20.60;;;;;;;20.92;75.31;100953.50;5008596;28;20033;-85
2022/09/13 09:02:15;;;;;;;30.13;19.95;;;;;;;21.00;75.78;100954.38;5007958;28;20037;-85
2022/09/13 09:04:55;;;;;;;34.10;19.83;;;;;;;21.10;75.12;100954.16;5011415;28;20279;-86
2022/09/13 09:07:31;;;;;;;31.27;20.30;;;;;;;21.10;73.61;100946.72;5018825;28;20330;-85
2022/09/13 09:10:03;;;;;;;26.92;20.23;;;;;;;21.19;73.93;100938.41;5010238;28;20029;-86
2022/09/13 09:12:37;;;;;;;;;;;;;;;21.34;75.63;100936.66;5008322;28;20554;-85
2022/09/13 09:15:26;;;;;;;29.65;19.40;;;;;;;21.35;73.84;100930.06;5007219;28;19917;-85
2022/09/13 09:17:57;;;;;;;31.25;19.38;;;;;;;21.34;72.61;100928.34;5005775;28;20045;-85
2022/09/13 09:20:27;;;;;;;30.33;19.40;;;;;;;21.29;73.25;100925.22;5008215;28;20030;-85
2022/09/13 09:22:54;;;;;;;32.40;20.80;;;;;;;21.24;73.45;100916.59;5008629;28;20069;-85
2022/09/13 09:25:23;;;;;;;30.33;19.65;;;;;;;21.45;73.71;100921.53;5009156;28;20088;-86
2022/09/13 09:27:49;;;;;;;26.33;18.90;;;;;;;21.62;73.92;100923.19;5006329;28;20034;-85
2022/09/13 09:30:14;;;;;;;23.20;16.73;;;;;;;21.84;72.87;100921.50;4991886;28;20080;-85
2022/09/13 09:32:56;;;;;;;29.45;17.83;;;;;;;21.95;72.86;100920.22;4988153;28;20061;-85
2022/09/13 09:35:40;;;;;;;24.55;17.77;;;;;;;22.07;72.75;100922.38;5009157;28;20105;-85
2022/09/13 09:38:45;;;;;;;29.95;17.95;;;;;;;22.35;72.27;100933.81;4994374;28;20091;-86
2022/09/13 09:41:33;;;;;;;29.50;19.38;;;;;;;22.55;71.59;100931.38;5019765;28;20050;-85
2022/09/13 09:44:18;;;;;;;32.30;19.42;;;;;;;22.61;70.91;100932.53;5007427;28;20236;-86
2022/09/13 09:46:48;;;;;;;27.75;19.55;;;;;;;22.75;70.14;100934.47;4996699;28;20397;-86
2022/09/13 09:52:18;;;;;;;26.92;17.58;;;;;;;23.24;69.35;100924.78;5016752;28;20436;-87
2022/09/13 09:54:45;;;;;;;25.42;16.33;;;;;;;23.44;69.47;100920.38;5010723;28;20045;-86
2022/09/13 09:57:12;;;;;;;23.92;17.52;;;;;;;23.68;67.39;100930.31;4980656;28;20048;-86
2022/09/13 09:59:37;;;;;;;23.35;16.52;;;;;;;23.86;66.94;100919.63;4990335;28;20030;-86
2022/09/13 10:02:20;;;;;;;25.88;16.00;;;;;;;24.18;68.62;100928.53;5001730;28;20040;-86
2022/09/13 10:04:55;;;;;;;28.88;17.48;;;;;;;24.03;65.39;100927.75;5010344;28;20069;-85
2022/09/13 10:07:31;;;;;;;22.20;15.75;;;;;;;23.73;65.56;100918.63;5028489;28;20049;-85
2022/09/13 10:10:24;;;;;;;24.95;16.38;;;;;;;23.54;68.21;100923.69;4992003;28;20548;-86
2022/09/13 10:12:54;;;;;;;26.30;16.58;;;;;;;23.38;67.10;100927.56;4980881;28;20422;-86
2022/09/13 10:15:24;;;;;;;27.63;16.30;;;;;;;23.32;66.01;100919.16;5008999;28;20056;-86
2022/09/13 10:18:14;;;;;;;20.15;13.48;;;;;;;23.43;68.72;100919.50;5008054;28;20099;-86
2022/09/13 10:20:40;;;;;;;21.25;14.15;;;;;;;23.55;69.81;100913.44;4991027;28;20378;-86
2022/09/13 10:23:14;;;;;;;19.23;11.90;;;;;;;23.83;68.94;100911.72;5000837;28;20127;-86
2022/09/13 10:25:42;;;;;;;19.55;13.23;;;;;;;24.01;65.25;100918.72;5007489;28;20446;-86
2022/09/13 10:28:15;;;;;;;24.38;14.07;;;;;;;24.20;65.03;100915.28;5006298;28;20136;-85
2022/09/13 10:30:53;;;;;;;20.85;14.52;;;;;;;24.26;65.03;100917.28;4991071;28;20140;-86
2022/09/13 10:33:31;;;;;;;17.65;12.32;;;;;;;24.15;64.89;100917.78;5008461;28;20044;-85
2022/09/13 10:36:01;;;;;;;18.83;11.57;;;;;;;24.01;65.63;100919.56;4991140;28;20454;-86
2022/09/13 10:38:33;;;;;;;18.27;11.93;;;;;;;23.81;65.65;100915.72;4990476;28;20037;-86
2022/09/13 10:41:01;;;;;;;16.35;10.50;;;;;;;23.73;66.32;100911.13;4976482;28;20044;-87
2022/09/13 10:43:29;;;;;;;14.68;10.32;;;;;;;23.63;64.77;100916.97;5010913;28;20029;-86
2022/09/13 10:45:56;;;;;;;18.83;9.95;;;;;;;23.70;66.72;100919.03;5020901;28;20037;-86
2022/09/13 10:48:23;;;;;;;16.67;10.85;;;;;;;23.78;65.90;100919.78;4990367;28;20065;-86
2022/09/13 10:51:04;;;;;;;13.85;10.00;;;;;;;23.79;66.31;100915.06;4990758;28;20061;-86
2022/09/13 10:53:38;;;;;;;14.10;8.35;;;;;;;23.73;66.83;100916.69;5003296;28;20128;-86
2022/09/13 10:56:17;;;;;;;14.80;9.65;;;;;;;23.80;65.47;100908.44;4993147;28;20034;-86
2022/09/13 10:58:42;;;;;;;15.50;9.05;;;;;;;24.04;66.21;100910.00;4990351;28;20037;-86
2022/09/13 11:01:14;;;;;;;13.57;9.85;;;;;;;24.22;65.76;100906.75;4990181;28;20143;-86
2022/09/13 11:03:56;;;;;;;17.00;10.57;;;;;;;24.22;64.07;100903.97;4990241;28;20037;-86
2022/09/13 11:06:28;;;;;;;;;;;;;;;24.31;66.56;100903.63;4991438;28;20057;-85
2022/09/13 11:09:11;;;;;;;16.55;8.60;;;;;;;23.98;66.62;100897.75;4996536;28;20288;-86
2022/09/13 11:11:59;;;;;;;11.88;7.75;;;;;;;23.92;66.61;100893.84;5007491;28;20042;-86
2022/09/13 11:14:37;;;;;;;11.75;7.82;;;;;;;23.90;64.82;100890.41;5005515;28;20049;-86
2022/09/13 11:17:17;;;;;;;10.07;7.05;;;;;;;23.95;64.66;100887.03;4989169;28;20038;-86
2022/09/13 11:20:16;;;;;;;10.40;8.07;;;;;;;23.91;64.99;100880.13;4974839;28;20034;-86
2022/09/13 11:23:01;;;;;;;13.40;7.65;;;;;;;23.98;64.46;100883.84;4955265;28;20128;-86
2022/09/13 11:25:46;;;;;;;9.77;7.45;;;;;;;24.17;63.85;100882.34;4989890;28;20046;-86
2022/09/13 11:28:33;;;;;;;9.52;7.32;;;;;;;24.41;62.35;100876.38;5009490;28;20488;-86
2022/09/13 11:31:15;;;;;;;8.95;5.53;;;;;;;24.72;63.81;100868.72;4988761;28;20041;-86
2022/09/13 11:34:05;;;;;;;10.45;5.88;;;;;;;25.10;62.71;100875.59;5006935;28;20079;-87
2022/09/13 11:36:48;;;;;;;8.43;6.20;;;;;;;25.17;61.82;100879.28;4981290;28;20137;-86
2022/09/13 11:39:37;;;;;;;10.88;6.22;;;;;;;25.22;61.70;100888.94;5008101;28;20041;-86
2022/09/13 11:42:37;;;;;;;10.73;5.72;;;;;;;25.08;62.11;100882.44;5006949;28;20034;-86
2022/09/13 11:45:18;;;;;;;9.95;5.72;;;;;;;25.15;62.35;100875.00;5009479;28;20536;-86